Time,TemperatureF,DewpointF,PressureIn,WindDirection,WindDirectionDegrees,WindSpeedMPH,WindSpeedGustMPH,Humidity,HourlyPrecipIn,Conditions,Clouds,dailyrainin,SoftwareType,DateUTC
2013-05-07 00:00:00,48.7,47.1,29.92,NW,321,0.0,1.0,94,0.00,,,0.44,Wunderground v.1.15,2013-05-07 04:00:00,
2013-05-07 00:05:00,48.8,47.2,29.92,NW,321,0.0,1.0,94,0.00,,,0.00,Wunderground v.1.15,2013-05-07 04:05:00,
2013-05-07 00:10:00,48.9,47.2,29.92,NW,321,0.0,0.0,94,0.00,,,0.00,Wunderground v.1.15,2013-05-07 04:10:00,
2013-05-07 00:15:00,48.8,47.2,29.92,NW,321,0.0,0.0,94,0.00,,,0.00,Wunderground v.1.15,2013-05-07 04:15:00,
2013-05-07 00:25:00,48.7,47.1,29.92,NW,321,0.0,0.0,94,0.00,,,0.00,Wunderground v.1.15,2013-05-07 04:25:00,
2013-05-07 00:30:00,48.7,47.1,29.92,NW,321,0.0,0.0,94,0.00,,,0.00,Wunderground v.1.15,2013-05-07 04:30:00,
2013-05-07 00:40:00,48.5,46.9,29.93,NW,321,0.0,0.0,94,0.00,,,0.00,Wunderground v.1.15,2013-05-07 04:40:00,
2013-05-07 00:45:00,48.5,46.9,29.93,NW,321,0.0,0.0,94,0.00,,,0.00,Wunderground v.1.15,2013-05-07 04:45:00,
2013-05-07 00:50:00,48.5,46.9,29.93,NW,321,0.0,0.0,94,0.00,,,0.00,Wunderground v.1.15,2013-05-07 04:50:00,
2013-05-07 00:55:00,48.5,46.9,29.92,NW,321,0.0,0.0,94,0.00,,,0.00,Wunderground v.1.15,2013-05-07 04:55:00,
2013-05-07 01:05:00,48.6,47.0,29.92,NW,321,0.0,0.0,94,0.00,,,0.00,Wunderground v.1.15,2013-05-07 05:05:00,
2013-05-07 01:10:00,48.7,47.1,29.92,NW,321,0.0,0.0,94,0.00,,,0.00,Wunderground v.1.15,2013-05-07 05:10:00,
2013-05-07 01:15:00,48.8,47.2,29.92,NW,321,0.0,0.0,94,0.00,,,0.00,Wunderground v.1.15,2013-05-07 05:15:00,
2013-05-07 01:25:00,48.9,47.2,29.92,NW,321,0.0,0.0,94,0.00,,,0.00,Wunderground v.1.15,2013-05-07 05:25:00,
2013-05-07 01:30:00,49.0,47.3,29.92,NW,321,0.0,0.0,94,0.00,,,0.00,Wunderground v.1.15,2013-05-07 05:30:00,
2013-05-07 01:35:00,49.0,47.3,29.92,NW,321,0.0,0.0,94,0.00,,,0.00,Wunderground v.1.15,2013-05-07 05:35:00,
2013-05-07 01:40:00,49.0,47.3,29.92,NW,321,0.0,0.0,94,0.00,,,0.00,Wunderground v.1.15,2013-05-07 05:40:00,
2013-05-07 01:50:00,49.1,47.4,29.92,NW,321,0.0,0.0,94,0.00,,,0.00,Wunderground v.1.15,2013-05-07 05:50:00,
2013-05-07 01:55:00,49.1,47.7,29.92,NW,321,0.0,0.0,95,0.00,,,0.00,Wunderground v.1.15,2013-05-07 05:55:00,
2013-05-07 02:00:00,49.2,47.5,29.91,NW,321,0.0,0.0,94,0.00,,,0.00,Wunderground v.1.15,2013-05-07 06:00:00,
2013-05-07 02:10:00,49.3,47.9,29.91,NW,321,0.0,0.0,95,0.00,,,0.00,Wunderground v.1.15,2013-05-07 06:10:00,
2013-05-07 02:15:00,49.4,48.0,29.91,NW,321,0.0,0.0,95,0.00,,,0.00,Wunderground v.1.15,2013-05-07 06:15:00,
2013-05-07 02:25:00,49.5,48.1,29.91,NW,321,0.0,0.0,95,0.00,,,0.00,Wunderground v.1.15,2013-05-07 06:25:00,
2013-05-07 02:30:00,49.5,48.1,29.90,NW,321,0.0,0.0,95,0.00,,,0.00,Wunderground v.1.15,2013-05-07 06:30:00,
2013-05-07 02:35:00,49.6,48.2,29.90,NW,321,0.0,0.0,95,0.00,,,0.00,Wunderground v.1.15,2013-05-07 06:35:00,
2013-05-07 02:40:00,49.6,47.9,29.90,NW,321,0.0,0.0,94,0.00,,,0.00,Wunderground v.1.15,2013-05-07 06:40:00,
2013-05-07 02:45:00,49.7,48.0,29.90,NW,321,0.0,0.0,94,0.00,,,0.00,Wunderground v.1.15,2013-05-07 06:45:00,
2013-05-07 02:55:00,49.7,48.0,29.90,NW,321,0.0,0.0,94,0.00,,,0.00,Wunderground v.1.15,2013-05-07 06:55:00,
2013-05-07 03:00:00,49.7,48.0,29.90,NW,321,0.0,0.0,94,0.00,,,0.00,Wunderground v.1.15,2013-05-07 07:00:00,
2013-05-07 03:10:00,49.8,48.4,29.90,NW,321,0.0,0.0,95,0.00,,,0.00,Wunderground v.1.15,2013-05-07 07:10:00,
2013-05-07 03:15:00,49.9,48.5,29.90,NW,321,0.0,0.0,95,0.00,,,0.00,Wunderground v.1.15,2013-05-07 07:15:00,
2013-05-07 03:20:00,49.9,48.5,29.90,NW,321,0.0,0.0,95,0.00,,,0.00,Wunderground v.1.15,2013-05-07 07:20:00,
2013-05-07 03:25:00,49.9,48.5,29.90,NW,321,0.0,0.0,95,0.00,,,0.00,Wunderground v.1.15,2013-05-07 07:25:00,
2013-05-07 03:35:00,50.0,48.6,29.90,NW,321,0.0,0.0,95,0.00,,,0.00,Wunderground v.1.15,2013-05-07 07:35:00,
2013-05-07 03:40:00,50.0,48.6,29.90,NW,321,0.0,0.0,95,0.00,,,0.00,Wunderground v.1.15,2013-05-07 07:40:00,
2013-05-07 03:45:00,50.0,48.6,29.90,NW,321,0.0,0.0,95,0.00,,,0.00,Wunderground v.1.15,2013-05-07 07:45:00,
2013-05-07 03:55:00,50.1,48.7,29.90,NW,321,0.0,0.0,95,0.00,,,0.00,Wunderground v.1.15,2013-05-07 07:55:00,
2013-05-07 04:00:00,50.1,48.7,29.90,NW,321,0.0,0.0,95,0.00,,,0.00,Wunderground v.1.15,2013-05-07 08:00:00,
2013-05-07 04:05:00,50.1,48.7,29.90,NW,321,0.0,0.0,95,0.00,,,0.00,Wunderground v.1.15,2013-05-07 08:05:00,
2013-05-07 04:10:00,50.2,48.8,29.90,NW,321,0.0,0.0,95,0.00,,,0.00,Wunderground v.1.15,2013-05-07 08:10:00,
2013-05-07 04:15:00,50.3,48.9,29.90,NW,321,0.0,0.0,95,0.00,,,0.00,Wunderground v.1.15,2013-05-07 08:15:00,
2013-05-07 04:25:00,50.3,48.9,29.90,NW,321,0.0,0.0,95,0.00,,,0.00,Wunderground v.1.15,2013-05-07 08:25:00,
2013-05-07 04:30:00,50.3,48.9,29.90,NW,321,0.0,0.0,95,0.00,,,0.00,Wunderground v.1.15,2013-05-07 08:30:00,
2013-05-07 04:40:00,50.3,48.9,29.90,NW,321,0.0,0.0,95,0.00,,,0.00,Wunderground v.1.15,2013-05-07 08:40:00,
2013-05-07 04:45:00,50.4,49.0,29.90,NW,321,0.0,0.0,95,0.00,,,0.00,Wunderground v.1.15,2013-05-07 08:45:00,
2013-05-07 04:55:00,50.4,49.0,29.90,NW,321,0.0,0.0,95,0.00,,,0.00,Wunderground v.1.15,2013-05-07 08:55:00,
2013-05-07 05:00:00,50.4,49.0,29.90,NW,321,0.0,0.0,95,0.00,,,0.00,Wunderground v.1.15,2013-05-07 09:00:00,
2013-05-07 05:05:00,50.5,49.1,29.90,NW,321,0.0,0.0,95,0.00,,,0.00,Wunderground v.1.15,2013-05-07 09:05:00,
2013-05-07 05:10:00,50.5,49.1,29.90,NW,321,0.0,0.0,95,0.00,,,0.00,Wunderground v.1.15,2013-05-07 09:10:00,
2013-05-07 05:15:00,50.5,49.1,29.90,NW,321,0.0,0.0,95,0.00,,,0.00,Wunderground v.1.15,2013-05-07 09:15:00,
2013-05-07 05:25:00,50.6,49.2,29.90,NW,321,0.0,0.0,95,0.00,,,0.00,Wunderground v.1.15,2013-05-07 09:25:00,
2013-05-07 05:30:00,50.6,49.2,29.89,NW,321,0.0,0.0,95,0.00,,,0.00,Wunderground v.1.15,2013-05-07 09:30:00,
2013-05-07 05:40:00,50.6,49.2,29.90,NW,321,0.0,0.0,95,0.00,,,0.00,Wunderground v.1.15,2013-05-07 09:40:00,
2013-05-07 05:50:00,50.5,49.1,29.90,NW,321,0.0,0.0,95,0.00,,,0.00,Wunderground v.1.15,2013-05-07 09:50:00,
2013-05-07 05:55:00,50.5,49.1,29.90,NW,321,0.0,0.0,95,0.00,,,0.00,Wunderground v.1.15,2013-05-07 09:55:00,
2013-05-07 06:00:00,50.4,49.0,29.90,NW,321,0.0,0.0,95,0.00,,,0.00,Wunderground v.1.15,2013-05-07 10:00:00,
2013-05-07 06:10:00,50.2,48.5,29.90,NW,321,0.0,0.0,94,0.00,,,0.00,Wunderground v.1.15,2013-05-07 10:10:00,
2013-05-07 06:15:00,50.2,48.5,29.90,NW,321,0.0,0.0,94,0.00,,,0.00,Wunderground v.1.15,2013-05-07 10:15:00,
2013-05-07 06:20:00,50.1,48.7,29.90,NW,321,0.0,0.0,95,0.00,,,0.00,Wunderground v.1.15,2013-05-07 10:20:00,
2013-05-07 06:30:00,50.0,48.6,29.91,NW,321,0.0,0.0,95,0.00,,,0.00,Wunderground v.1.15,2013-05-07 10:30:00,
2013-05-07 06:35:00,50.1,48.7,29.91,NW,321,0.0,0.0,95,0.00,,,0.00,Wunderground v.1.15,2013-05-07 10:35:00,
2013-05-07 06:40:00,50.1,48.7,29.91,NW,321,0.0,0.0,95,0.00,,,0.00,Wunderground v.1.15,2013-05-07 10:40:00,
2013-05-07 06:45:00,50.1,48.7,29.91,NW,321,0.0,0.0,95,0.00,,,0.00,Wunderground v.1.15,2013-05-07 10:45:00,
2013-05-07 06:55:00,50.3,48.9,29.92,NW,321,0.0,0.0,95,0.00,,,0.00,Wunderground v.1.15,2013-05-07 10:55:00,
2013-05-07 07:00:00,50.3,48.9,29.92,NW,321,0.0,0.0,95,0.00,,,0.00,Wunderground v.1.15,2013-05-07 11:00:00,
2013-05-07 07:10:00,50.4,49.0,29.92,NW,321,0.0,0.0,95,0.00,,,0.00,Wunderground v.1.15,2013-05-07 11:10:00,
2013-05-07 07:15:00,50.5,49.1,29.92,NW,321,0.0,0.0,95,0.00,,,0.01,Wunderground v.1.15,2013-05-07 11:15:00,
2013-05-07 07:20:00,50.6,49.2,29.92,NW,321,0.0,0.0,95,0.00,,,0.01,Wunderground v.1.15,2013-05-07 11:20:00,
2013-05-07 07:25:00,50.7,49.3,29.92,NW,321,0.0,0.0,95,0.00,,,0.01,Wunderground v.1.15,2013-05-07 11:25:00,
2013-05-07 07:30:00,50.8,49.4,29.92,NW,321,0.0,0.0,95,0.00,,,0.01,Wunderground v.1.15,2013-05-07 11:30:00,
2013-05-07 07:40:00,50.9,49.5,29.92,NW,321,0.0,0.0,95,0.00,,,0.01,Wunderground v.1.15,2013-05-07 11:40:00,
2013-05-07 07:45:00,50.9,49.5,29.93,NW,321,0.0,1.0,95,0.00,,,0.01,Wunderground v.1.15,2013-05-07 11:45:00,
2013-05-07 07:50:00,50.9,49.5,29.93,NW,321,0.0,0.0,95,0.00,,,0.01,Wunderground v.1.15,2013-05-07 11:50:00,
2013-05-07 07:55:00,51.0,49.6,29.93,NW,321,0.0,0.0,95,0.00,,,0.01,Wunderground v.1.15,2013-05-07 11:55:00,
2013-05-07 08:05:00,51.0,49.6,29.93,NW,321,0.0,0.0,95,0.00,,,0.01,Wunderground v.1.15,2013-05-07 12:05:00,
2013-05-07 08:10:00,51.2,49.8,29.93,NW,321,0.0,1.0,95,0.00,,,0.01,Wunderground v.1.15,2013-05-07 12:10:00,
2013-05-07 08:15:00,51.2,49.8,29.93,NW,321,0.0,1.0,95,0.00,,,0.01,Wunderground v.1.15,2013-05-07 12:15:00,
2013-05-07 08:25:00,51.3,49.9,29.93,NW,321,0.0,0.0,95,0.00,,,0.01,Wunderground v.1.15,2013-05-07 12:25:00,
2013-05-07 08:30:00,51.4,50.0,29.93,NW,321,0.0,0.0,95,0.00,,,0.01,Wunderground v.1.15,2013-05-07 12:30:00,
2013-05-07 08:40:00,51.7,50.3,29.93,NW,321,0.0,0.0,95,0.00,,,0.01,Wunderground v.1.15,2013-05-07 12:40:00,
2013-05-07 08:45:00,51.8,50.4,29.94,NW,321,0.0,0.0,95,0.00,,,0.01,Wunderground v.1.15,2013-05-07 12:45:00,
2013-05-07 08:55:00,51.8,50.1,29.94,NW,321,0.0,0.0,94,0.00,,,0.01,Wunderground v.1.15,2013-05-07 12:55:00,
2013-05-07 09:00:00,51.9,50.5,29.94,NW,321,0.0,0.0,95,0.00,,,0.01,Wunderground v.1.15,2013-05-07 13:00:00,
2013-05-07 09:10:00,52.0,50.3,29.94,NW,321,0.0,0.0,94,0.00,,,0.01,Wunderground v.1.15,2013-05-07 13:10:00,
2013-05-07 09:15:00,52.0,50.3,29.94,NW,321,0.0,0.0,94,0.00,,,0.01,Wunderground v.1.15,2013-05-07 13:15:00,
2013-05-07 09:25:00,52.0,50.3,29.95,NW,321,0.0,0.0,94,0.00,,,0.01,Wunderground v.1.15,2013-05-07 13:25:00,
2013-05-07 09:30:00,52.2,50.5,29.95,NW,321,0.0,0.0,94,0.00,,,0.01,Wunderground v.1.15,2013-05-07 13:30:00,
2013-05-07 09:35:00,52.8,51.1,29.95,NW,321,0.0,0.0,94,0.00,,,0.01,Wunderground v.1.15,2013-05-07 13:35:00,
2013-05-07 09:40:00,53.1,51.4,29.95,NW,321,0.0,0.0,94,0.00,,,0.01,Wunderground v.1.15,2013-05-07 13:40:00,
2013-05-07 09:45:00,53.4,51.4,29.95,NW,321,0.0,0.0,93,0.00,,,0.01,Wunderground v.1.15,2013-05-07 13:45:00,
2013-05-07 09:55:00,53.4,51.1,29.95,NW,321,0.0,1.0,92,0.00,,,0.01,Wunderground v.1.15,2013-05-07 13:55:00,
2013-05-07 10:00:00,53.2,50.6,29.95,NW,321,0.0,0.0,91,0.00,,,0.01,Wunderground v.1.15,2013-05-07 14:00:00,
2013-05-07 10:10:00,53.0,50.4,29.96,NW,321,0.0,0.0,91,0.00,,,0.01,Wunderground v.1.15,2013-05-07 14:10:00,
2013-05-07 10:15:00,52.9,50.3,29.96,NW,321,0.0,0.0,91,0.00,,,0.01,Wunderground v.1.15,2013-05-07 14:15:00,
2013-05-07 10:20:00,52.9,50.3,29.96,NW,321,0.0,0.0,91,0.00,,,0.01,Wunderground v.1.15,2013-05-07 14:20:00,
2013-05-07 10:25:00,53.0,50.4,29.96,NW,321,0.0,0.0,91,0.00,,,0.01,Wunderground v.1.15,2013-05-07 14:25:00,
2013-05-07 10:30:00,53.1,50.5,29.96,NW,321,0.0,1.0,91,0.00,,,0.01,Wunderground v.1.15,2013-05-07 14:30:00,
2013-05-07 10:40:00,53.0,50.4,29.96,WNW,300,1.0,1.0,91,0.00,,,0.02,Wunderground v.1.15,2013-05-07 14:40:00,
2013-05-07 10:45:00,53.1,50.5,29.96,WNW,298,1.0,1.0,91,0.00,,,0.02,Wunderground v.1.15,2013-05-07 14:45:00,
2013-05-07 10:55:00,53.7,51.4,29.96,WNW,299,0.0,1.0,92,0.00,,,0.02,Wunderground v.1.15,2013-05-07 14:55:00,
2013-05-07 11:00:00,54.0,51.7,29.96,WNW,299,0.0,3.0,92,0.00,,,0.02,Wunderground v.1.15,2013-05-07 15:00:00,
2013-05-07 11:10:00,54.8,52.5,29.96,WNW,299,0.0,0.0,92,0.00,,,0.02,Wunderground v.1.15,2013-05-07 15:10:00,
2013-05-07 11:20:00,55.4,52.8,29.96,NW,308,1.0,1.0,91,0.00,,,0.02,Wunderground v.1.15,2013-05-07 15:20:00,
2013-05-07 11:25:00,56.1,53.8,29.95,NW,324,1.0,4.0,92,0.00,,,0.02,Wunderground v.1.15,2013-05-07 15:25:00,
2013-05-07 11:30:00,56.2,53.0,29.95,WNW,284,1.0,3.0,89,0.00,,,0.02,Wunderground v.1.15,2013-05-07 15:30:00,
2013-05-07 11:40:00,56.8,53.0,29.95,NW,309,2.0,2.0,87,0.00,,,0.02,Wunderground v.1.15,2013-05-07 15:40:00,
2013-05-07 11:45:00,57.2,53.4,29.95,WNW,293,2.0,2.0,87,0.00,,,0.02,Wunderground v.1.15,2013-05-07 15:45:00,
2013-05-07 11:55:00,57.2,53.0,29.94,NNW,338,4.0,4.0,86,0.00,,,0.02,Wunderground v.1.15,2013-05-07 15:55:00,
2013-05-07 12:00:00,57.2,53.0,29.95,NW,313,3.0,3.0,86,0.00,,,0.02,Wunderground v.1.15,2013-05-07 16:00:00,
2013-05-07 12:10:00,57.3,53.1,29.94,WNW,302,3.0,3.0,86,0.00,,,0.02,Wunderground v.1.15,2013-05-07 16:10:00,
2013-05-07 12:15:00,57.2,52.7,29.94,WNW,300,3.0,4.0,85,0.00,,,0.02,Wunderground v.1.15,2013-05-07 16:15:00,
2013-05-07 12:20:00,57.2,52.7,29.94,WNW,295,4.0,6.0,85,0.00,,,0.02,Wunderground v.1.15,2013-05-07 16:20:00,
2013-05-07 12:25:00,57.4,52.6,29.93,West,281,4.0,6.0,84,0.00,,,0.02,Wunderground v.1.15,2013-05-07 16:25:00,
2013-05-07 12:30:00,57.7,52.9,29.94,NW,304,3.0,4.0,84,0.00,,,0.02,Wunderground v.1.15,2013-05-07 16:30:00,
2013-05-07 12:40:00,57.2,52.4,29.94,WNW,300,3.0,3.0,84,0.00,,,0.02,Wunderground v.1.15,2013-05-07 16:40:00,
2013-05-07 12:45:00,57.1,52.3,29.94,WNW,292,3.0,3.0,84,0.00,,,0.02,Wunderground v.1.15,2013-05-07 16:45:00,
2013-05-07 12:55:00,57.2,52.4,29.93,West,273,2.0,4.0,84,0.00,,,0.02,Wunderground v.1.15,2013-05-07 16:55:00,
2013-05-07 13:00:00,57.4,52.6,29.93,NW,322,2.0,2.0,84,0.00,,,0.02,Wunderground v.1.15,2013-05-07 17:00:00,
2013-05-07 13:10:00,57.9,52.8,29.92,West,270,5.0,10.0,83,0.00,,,0.02,Wunderground v.1.15,2013-05-07 17:10:00,
2013-05-07 13:15:00,58.1,53.3,29.92,WSW,257,6.0,10.0,84,0.00,,,0.02,Wunderground v.1.15,2013-05-07 17:15:00,
2013-05-07 13:25:00,59.0,53.2,29.92,West,279,3.0,7.0,81,0.00,,,0.02,Wunderground v.1.15,2013-05-07 17:25:00,
2013-05-07 13:30:00,59.0,53.8,29.92,NW,308,4.0,4.0,83,0.00,,,0.02,Wunderground v.1.15,2013-05-07 17:30:00,
2013-05-07 13:40:00,59.0,52.8,29.92,WNW,287,5.0,6.0,80,0.00,,,0.02,Wunderground v.1.15,2013-05-07 17:40:00,
2013-05-07 13:45:00,60.0,54.2,29.92,WNW,300,5.0,6.0,81,0.00,,,0.02,Wunderground v.1.15,2013-05-07 17:45:00,
2013-05-07 13:55:00,60.9,53.6,29.91,West,259,5.0,6.0,77,0.00,,,0.02,Wunderground v.1.15,2013-05-07 17:55:00,
2013-05-07 14:00:00,60.7,53.1,29.91,WNW,288,6.0,8.0,76,0.00,,,0.02,Wunderground v.1.15,2013-05-07 18:00:00,
2013-05-07 14:10:00,60.5,52.2,29.91,NW,316,6.0,6.0,74,0.00,,,0.02,Wunderground v.1.15,2013-05-07 18:10:00,
2013-05-07 14:20:00,60.7,53.1,29.91,NW,306,4.0,4.0,76,0.00,,,0.02,Wunderground v.1.15,2013-05-07 18:20:00,
2013-05-07 14:25:00,60.8,53.2,29.91,WNW,298,4.0,4.0,76,0.00,,,0.02,Wunderground v.1.15,2013-05-07 18:25:00,
2013-05-07 14:30:00,60.7,52.7,29.91,NNW,337,5.0,5.0,75,0.00,,,0.02,Wunderground v.1.15,2013-05-07 18:30:00,
2013-05-07 14:40:00,60.9,53.6,29.91,WNW,294,5.0,5.0,77,0.00,,,0.02,Wunderground v.1.15,2013-05-07 18:40:00,
2013-05-07 14:45:00,61.3,52.9,29.90,NW,324,4.0,5.0,74,0.00,,,0.02,Wunderground v.1.15,2013-05-07 18:45:00,
2013-05-07 14:55:00,61.7,53.0,29.90,West,277,5.0,7.0,73,0.00,,,0.02,Wunderground v.1.15,2013-05-07 18:55:00,
2013-05-07 15:00:00,61.2,52.8,29.90,West,263,6.0,6.0,74,0.00,,,0.02,Wunderground v.1.15,2013-05-07 19:00:00,
2013-05-07 15:05:00,61.3,52.9,29.90,West,279,6.0,11.0,74,0.00,,,0.02,Wunderground v.1.15,2013-05-07 19:05:00,
2013-05-07 15:10:00,61.2,52.8,29.91,WNW,296,5.0,5.0,74,0.00,,,0.02,Wunderground v.1.15,2013-05-07 19:10:00,
2013-05-07 15:20:00,60.3,50.1,29.91,South,176,3.0,3.0,69,0.00,,,0.02,Wunderground v.1.15,2013-05-07 19:20:00,
2013-05-07 15:25:00,60.0,50.2,29.91,West,280,3.0,5.0,70,0.00,,,0.02,Wunderground v.1.15,2013-05-07 19:25:00,
2013-05-07 15:30:00,59.4,50.0,29.91,WNW,284,2.0,5.0,71,0.00,,,0.02,Wunderground v.1.15,2013-05-07 19:30:00,
2013-05-07 15:40:00,57.9,50.7,29.92,West,266,3.0,3.0,77,0.00,,,0.03,Wunderground v.1.15,2013-05-07 19:40:00,
2013-05-07 15:45:00,57.3,52.5,29.91,West,266,2.0,3.0,84,0.10,,,0.04,Wunderground v.1.15,2013-05-07 19:45:00,
2013-05-07 15:55:00,56.0,52.2,29.91,West,266,0.0,0.0,87,0.05,,,0.04,Wunderground v.1.15,2013-05-07 19:55:00,
2013-05-07 16:00:00,55.7,52.2,29.91,West,266,0.0,0.0,88,0.04,,,0.05,Wunderground v.1.15,2013-05-07 20:00:00,
2013-05-07 16:05:00,55.7,52.5,29.91,West,266,0.0,0.0,89,0.04,,,0.05,Wunderground v.1.15,2013-05-07 20:05:00,
2013-05-07 16:10:00,55.9,53.0,29.91,West,266,0.0,0.0,90,0.04,,,0.05,Wunderground v.1.15,2013-05-07 20:10:00,
2013-05-07 16:15:00,56.4,53.5,29.91,West,266,0.0,0.0,90,0.04,,,0.05,Wunderground v.1.15,2013-05-07 20:15:00,
2013-05-07 16:25:00,57.5,54.6,29.90,West,266,0.0,0.0,90,0.00,,,0.05,Wunderground v.1.15,2013-05-07 20:25:00,
2013-05-07 16:30:00,58.2,55.3,29.89,West,266,0.0,0.0,90,0.00,,,0.05,Wunderground v.1.15,2013-05-07 20:30:00,
2013-05-07 16:35:00,58.5,55.0,29.89,West,266,0.0,0.0,88,0.00,,,0.05,Wunderground v.1.15,2013-05-07 20:35:00,
2013-05-07 16:40:00,58.8,53.0,29.89,West,266,0.0,0.0,81,0.00,,,0.05,Wunderground v.1.15,2013-05-07 20:40:00,
2013-05-07 16:45:00,59.1,52.6,29.89,West,266,0.0,0.0,79,0.00,,,0.05,Wunderground v.1.15,2013-05-07 20:45:00,
2013-05-07 16:55:00,59.3,53.5,29.90,SSE,153,0.0,1.0,81,0.00,,,0.05,Wunderground v.1.15,2013-05-07 20:55:00,
2013-05-07 17:00:00,58.9,52.1,29.90,SSE,161,0.0,0.0,78,0.00,,,0.05,Wunderground v.1.15,2013-05-07 21:00:00,
2013-05-07 17:10:00,58.6,52.8,29.90,SSE,161,0.0,0.0,81,0.00,,,0.05,Wunderground v.1.15,2013-05-07 21:10:00,
2013-05-07 17:15:00,58.5,54.0,29.90,SSE,165,0.0,0.0,85,0.00,,,0.05,Wunderground v.1.15,2013-05-07 21:15:00,
2013-05-07 17:20:00,58.2,51.0,29.90,WSW,239,1.0,1.0,77,0.00,,,0.05,Wunderground v.1.15,2013-05-07 21:20:00,
2013-05-07 17:25:00,58.1,52.6,29.90,WSW,239,1.0,1.0,82,0.00,,,0.05,Wunderground v.1.15,2013-05-07 21:25:00,
2013-05-07 17:30:00,57.7,52.2,29.91,WSW,239,0.0,0.0,82,0.00,,,0.05,Wunderground v.1.15,2013-05-07 21:30:00,
2013-05-07 17:40:00,57.2,52.1,29.91,WNW,288,0.0,3.0,83,0.00,,,0.05,Wunderground v.1.15,2013-05-07 21:40:00,
2013-05-07 17:45:00,57.2,51.8,29.91,WNW,293,1.0,3.0,82,0.00,,,0.05,Wunderground v.1.15,2013-05-07 21:45:00,
2013-05-07 17:55:00,57.2,52.1,29.91,NW,304,1.0,2.0,83,0.00,,,0.05,Wunderground v.1.15,2013-05-07 21:55:00,
2013-05-07 18:00:00,57.2,52.1,29.91,WNW,298,2.0,4.0,83,0.00,,,0.05,Wunderground v.1.15,2013-05-07 22:00:00,
2013-05-07 18:05:00,57.2,52.1,29.92,WNW,292,2.0,4.0,83,0.00,,,0.05,Wunderground v.1.15,2013-05-07 22:05:00,
2013-05-07 18:10:00,57.3,52.2,29.91,West,280,2.0,6.0,83,0.00,,,0.05,Wunderground v.1.15,2013-05-07 22:10:00,
2013-05-07 18:15:00,57.4,52.3,29.92,WNW,294,2.0,6.0,83,0.00,,,0.05,Wunderground v.1.15,2013-05-07 22:15:00,
2013-05-07 18:25:00,57.7,52.6,29.91,WNW,291,1.0,3.0,83,0.00,,,0.05,Wunderground v.1.15,2013-05-07 22:25:00,
2013-05-07 18:35:00,58.4,53.9,29.91,WNW,291,0.0,1.0,85,0.00,,,0.05,Wunderground v.1.15,2013-05-07 22:35:00,
2013-05-07 18:40:00,58.3,52.5,29.91,NW,320,1.0,1.0,81,0.00,,,0.05,Wunderground v.1.15,2013-05-07 22:40:00,
2013-05-07 18:45:00,58.0,52.5,29.91,WNW,287,3.0,6.0,82,0.00,,,0.05,Wunderground v.1.15,2013-05-07 22:45:00,
2013-05-07 18:50:00,57.7,51.9,29.91,WNW,294,3.0,3.0,81,0.00,,,0.05,Wunderground v.1.15,2013-05-07 22:50:00,
2013-05-07 18:55:00,57.3,51.9,29.91,WNW,283,4.0,5.0,82,0.00,,,0.05,Wunderground v.1.15,2013-05-07 22:55:00,
2013-05-07 19:00:00,57.1,52.0,29.91,SW,225,4.0,4.0,83,0.00,,,0.05,Wunderground v.1.15,2013-05-07 23:00:00,
2013-05-07 19:10:00,56.9,51.8,29.92,West,278,3.0,4.0,83,0.00,,,0.05,Wunderground v.1.15,2013-05-07 23:10:00,
2013-05-07 19:15:00,56.8,51.7,29.93,WNW,293,3.0,4.0,83,0.00,,,0.05,Wunderground v.1.15,2013-05-07 23:15:00,
2013-05-07 19:25:00,56.7,51.6,29.93,WNW,298,2.0,2.0,83,0.00,,,0.05,Wunderground v.1.15,2013-05-07 23:25:00,
2013-05-07 19:30:00,56.6,51.5,29.93,West,272,2.0,2.0,83,0.00,,,0.05,Wunderground v.1.15,2013-05-07 23:30:00,
2013-05-07 19:35:00,56.4,51.6,29.93,WNW,292,2.0,3.0,84,0.00,,,0.05,Wunderground v.1.15,2013-05-07 23:35:00,
2013-05-07 19:40:00,56.4,51.9,29.94,West,279,2.0,2.0,85,0.00,,,0.05,Wunderground v.1.15,2013-05-07 23:40:00,
2013-05-07 19:45:00,56.2,51.4,29.94,WNW,287,2.0,2.0,84,0.00,,,0.05,Wunderground v.1.15,2013-05-07 23:45:00,
2013-05-07 19:55:00,56.0,51.2,29.94,NW,304,2.0,2.0,84,0.00,,,0.05,Wunderground v.1.15,2013-05-07 23:55:00,
2013-05-07 20:00:00,55.9,51.5,29.94,WNW,298,2.0,2.0,85,0.00,,,0.05,Wunderground v.1.15,2013-05-08 00:00:00,
2013-05-07 20:10:00,55.8,51.7,29.94,NW,311,1.0,1.0,86,0.00,,,0.05,Wunderground v.1.15,2013-05-08 00:10:00,
2013-05-07 20:15:00,55.5,51.4,29.94,WNW,283,1.0,1.0,86,0.00,,,0.05,Wunderground v.1.15,2013-05-08 00:15:00,
2013-05-07 20:20:00,55.4,51.6,29.94,WNW,302,2.0,2.0,87,0.00,,,0.05,Wunderground v.1.15,2013-05-08 00:20:00,
2013-05-07 20:25:00,55.3,51.5,29.94,WNW,284,2.0,2.0,87,0.00,,,0.05,Wunderground v.1.15,2013-05-08 00:25:00,
2013-05-07 20:30:00,55.2,51.4,29.94,WNW,298,1.0,1.0,87,0.00,,,0.05,Wunderground v.1.15,2013-05-08 00:30:00,
2013-05-07 20:40:00,55.0,51.5,29.94,WNW,294,1.0,1.0,88,0.00,,,0.05,Wunderground v.1.15,2013-05-08 00:40:00,
2013-05-07 20:45:00,54.9,51.4,29.94,WNW,296,0.0,2.0,88,0.00,,,0.05,Wunderground v.1.15,2013-05-08 00:45:00,
2013-05-07 20:55:00,54.8,51.3,29.94,WNW,285,0.0,1.0,88,0.00,,,0.05,Wunderground v.1.15,2013-05-08 00:55:00,
2013-05-07 21:05:00,54.5,51.3,29.95,WNW,285,0.0,0.0,89,0.00,,,0.05,Wunderground v.1.15,2013-05-08 01:05:00,
2013-05-07 21:10:00,54.4,50.9,29.95,WNW,285,0.0,0.0,88,0.00,,,0.05,Wunderground v.1.15,2013-05-08 01:10:00,
2013-05-07 21:15:00,54.4,50.9,29.94,WNW,285,0.0,0.0,88,0.00,,,0.05,Wunderground v.1.15,2013-05-08 01:15:00,
2013-05-07 21:25:00,54.1,50.9,29.94,WNW,285,0.0,0.0,89,0.00,,,0.05,Wunderground v.1.15,2013-05-08 01:25:00,
2013-05-07 21:30:00,54.0,51.1,29.94,WNW,285,0.0,0.0,90,0.00,,,0.05,Wunderground v.1.15,2013-05-08 01:30:00,
2013-05-07 21:40:00,53.7,50.8,29.94,WNW,285,0.0,0.0,90,0.00,,,0.05,Wunderground v.1.15,2013-05-08 01:40:00,
2013-05-07 21:45:00,53.3,50.4,29.94,WNW,285,1.0,1.0,90,0.00,,,0.05,Wunderground v.1.15,2013-05-08 01:45:00,
2013-05-07 21:50:00,53.0,50.1,29.94,WNW,285,0.0,0.0,90,0.00,,,0.05,Wunderground v.1.15,2013-05-08 01:50:00,
2013-05-07 21:55:00,52.6,50.0,29.95,WNW,285,0.0,0.0,91,0.00,,,0.05,Wunderground v.1.15,2013-05-08 01:55:00,
2013-05-07 22:00:00,52.3,49.8,29.95,WNW,285,0.0,0.0,91,0.00,,,0.05,Wunderground v.1.15,2013-05-08 02:00:00,
2013-05-07 22:10:00,51.5,49.0,29.95,WNW,285,0.0,0.0,91,0.00,,,0.05,Wunderground v.1.15,2013-05-08 02:10:00,
2013-05-07 22:15:00,51.1,48.6,29.95,WNW,285,0.0,0.0,91,0.00,,,0.05,Wunderground v.1.15,2013-05-08 02:15:00,
2013-05-07 22:25:00,50.4,47.9,29.95,WNW,285,0.0,0.0,91,0.00,,,0.05,Wunderground v.1.15,2013-05-08 02:25:00,
2013-05-07 22:30:00,50.2,48.0,29.95,WNW,285,0.0,0.0,92,0.00,,,0.05,Wunderground v.1.15,2013-05-08 02:30:00,
2013-05-07 22:35:00,50.0,47.8,29.96,WNW,285,0.0,0.0,92,0.00,,,0.05,Wunderground v.1.15,2013-05-08 02:35:00,
2013-05-07 22:40:00,49.8,47.6,29.96,WNW,285,0.0,0.0,92,0.00,,,0.05,Wunderground v.1.15,2013-05-08 02:40:00,
2013-05-07 22:45:00,49.6,47.4,29.96,WNW,285,0.0,0.0,92,0.00,,,0.05,Wunderground v.1.15,2013-05-08 02:45:00,
2013-05-07 22:55:00,49.2,47.0,29.97,WNW,285,0.0,0.0,92,0.00,,,0.05,Wunderground v.1.15,2013-05-08 02:55:00,
2013-05-07 23:00:00,49.0,46.8,29.97,WNW,285,0.0,0.0,92,0.00,,,0.05,Wunderground v.1.15,2013-05-08 03:00:00,
2013-05-07 23:05:00,48.9,46.7,29.97,WNW,285,0.0,0.0,92,0.00,,,0.05,Wunderground v.1.15,2013-05-08 03:05:00,
2013-05-07 23:10:00,48.9,47.0,29.97,WNW,285,0.0,0.0,93,0.00,,,0.05,Wunderground v.1.15,2013-05-08 03:10:00,
2013-05-07 23:15:00,48.9,47.0,29.97,WNW,285,0.0,0.0,93,0.00,,,0.05,Wunderground v.1.15,2013-05-08 03:15:00,
2013-05-07 23:25:00,48.9,47.0,29.97,WNW,285,0.0,0.0,93,0.00,,,0.05,Wunderground v.1.15,2013-05-08 03:25:00,
2013-05-07 23:30:00,49.0,47.1,29.97,WNW,285,0.0,0.0,93,0.00,,,0.05,Wunderground v.1.15,2013-05-08 03:30:00,
2013-05-07 23:40:00,49.3,47.4,29.97,WNW,285,0.0,0.0,93,0.00,,,0.05,Wunderground v.1.15,2013-05-08 03:40:00,
2013-05-07 23:45:00,49.5,47.6,29.97,WNW,285,0.0,0.0,93,0.00,,,0.05,Wunderground v.1.15,2013-05-08 03:45:00,
2013-05-07 23:55:00,49.7,48.0,29.98,WNW,285,0.0,0.0,94,0.00,,,0.05,Wunderground v.1.15,2013-05-08 03:55:00,